Time;durP1;ratioP1;P1;durP2;ratioP2;P2;SDS_P1;SDS_P2;PMS_P1;PMS_P2;Temp;Humidity;BMP_temperature;BMP_pressure;BME280_temperature;BME280_humidity;BME280_pressure;Samples;Min_cycle;Max_cycle;Signal;HPM_P1;HPM_P2
2023/10/08 00:03:11;;;;;;;3.40;0.40;;;12.80;99.90;;;;;;5008447;28;20068;-71
2023/10/08 00:05:37;;;;;;;2.35;0.30;;;12.80;99.90;;;;;;5012596;28;20053;-72
2023/10/08 00:08:04;;;;;;;1.48;0.30;;;10.10;99.90;;;;;;5012990;28;20049;-70
2023/10/08 00:10:42;;;;;;;1.27;0.57;;;12.80;99.90;;;;;;5013854;28;20065;-71
2023/10/08 00:13:15;;;;;;;1.45;0.50;;;12.80;99.90;;;;;;5016990;28;20176;-70
2023/10/08 00:15:49;;;;;;;3.90;0.50;;;12.40;99.90;;;;;;5017246;28;20101;-71
2023/10/08 00:18:15;;;;;;;1.42;0.30;;;12.80;99.90;;;;;;5017482;28;20535;-73
2023/10/08 00:20:54;;;;;;;2.85;0.30;;;13.00;99.90;;;;;;5017009;28;20051;-71
2023/10/08 00:23:21;;;;;;;1.17;0.25;;;13.40;99.90;;;;;;5016319;28;20046;-70
2023/10/08 00:25:50;;;;;;;0.98;0.20;;;14.10;99.90;;;;;;4999640;28;20057;-71
2023/10/08 00:28:17;;;;;;;1.15;0.15;;;;;;;;;;5015771;28;20057;-70
2023/10/08 00:30:44;;;;;;;0.40;0.13;;;12.80;99.90;;;;;;5015836;28;20061;-72
2023/10/08 00:33:11;;;;;;;1.15;0.20;;;12.80;99.90;;;;;;5015704;28;20547;-70
2023/10/08 00:35:39;;;;;;;0.70;0.20;;;12.50;99.90;;;;;;5015364;28;20140;-71
2023/10/08 00:38:05;;;;;;;2.35;0.30;;;12.80;99.90;;;;;;5011963;28;20088;-70
2023/10/08 00:40:40;;;;;;;2.05;0.30;;;12.80;99.90;;;;;;4999474;28;20061;-72
2023/10/08 00:43:10;;;;;;;2.03;0.50;;;12.70;99.90;;;;;;5015412;28;20153;-71
2023/10/08 00:45:42;;;;;;;1.40;0.30;;;12.70;99.90;;;;;;5016009;28;20088;-71
2023/10/08 00:48:16;;;;;;;1.55;0.32;;;12.70;99.90;;;;;;5016146;28;20049;-70
2023/10/08 00:50:43;;;;;;;1.58;0.30;;;12.60;99.90;;;;;;5015841;28;20116;-71
2023/10/08 00:53:21;;;;;;;2.30;0.35;;;12.60;99.90;;;;;;5015763;28;20049;-71
2023/10/08 00:56:04;;;;;;;4.07;1.13;;;12.70;99.90;;;;;;5010594;28;20432;-71
2023/10/08 00:58:33;;;;;;;2.25;0.30;;;;;;;;;;5015905;28;20049;-71
2023/10/08 01:01:00;;;;;;;2.72;0.55;;;12.60;99.90;;;;;;5015942;28;20104;-71
2023/10/08 01:03:27;;;;;;;4.35;0.30;;;12.60;99.90;;;;;;5016313;28;20057;-70
2023/10/08 01:05:54;;;;;;;1.02;0.30;;;12.60;99.90;;;;;;5016391;28;20148;-72
2023/10/08 01:08:34;;;;;;;2.65;0.43;;;12.50;99.90;;;;;;5015918;28;20369;-71
2023/10/08 01:11:49;;;;;;;1.58;0.32;;;12.30;99.90;;;;;;5015867;28;20056;-70
2023/10/08 01:14:21;;;;;;;0.90;0.40;;;12.60;99.90;;;;;;5015757;28;20053;-70
2023/10/08 01:16:47;;;;;;;2.40;0.38;;;12.50;99.90;;;;;;5015308;28;20045;-71
2023/10/08 01:19:20;;;;;;;1.38;0.20;;;12.50;99.90;;;;;;5015461;28;20115;-72
2023/10/08 01:21:46;;;;;;;2.15;0.30;;;12.60;99.90;;;;;;5014886;28;20084;-71
2023/10/08 01:24:16;;;;;;;1.63;0.40;;;12.60;99.90;;;;;;5015975;28;20052;-71
2023/10/08 01:26:42;;;;;;;1.70;0.30;;;12.50;99.90;;;;;;5015942;28;20061;-70
2023/10/08 01:29:21;;;;;;;1.23;0.40;;;12.60;99.90;;;;;;5015092;28;20051;-70
2023/10/08 01:31:53;;;;;;;0.80;0.20;;;12.70;99.90;;;;;;4997258;28;20705;-71
2023/10/08 01:34:26;;;;;;;1.48;0.30;;;12.30;99.90;;;;;;5013414;28;20052;-71
2023/10/08 01:36:52;;;;;;;1.42;0.20;;;12.50;99.90;;;;;;5013505;28;20715;-70
2023/10/08 01:39:19;;;;;;;1.77;0.30;;;;;;;;;;5014088;28;20057;-71
2023/10/08 01:41:46;;;;;;;3.17;0.30;;;12.60;99.90;;;;;;5013357;28;20044;-72
2023/10/08 01:44:12;;;;;;;4.45;0.30;;;12.60;99.90;;;;;;5014087;28;20084;-70
2023/10/08 01:46:40;;;;;;;3.60;0.30;;;12.60;99.90;;;;;;5015033;28;20049;-70
2023/10/08 01:49:32;;;;;;;4.07;0.40;;;12.50;99.90;;;;;;5015223;28;20057;-71
2023/10/08 01:51:55;;;;;;;2.47;0.30;;;12.60;99.90;;;;;;5014242;28;20325;-71
2023/10/08 01:54:21;;;;;;;6.07;0.45;;;12.30;99.90;;;;;;5014688;28;20049;-70
2023/10/08 01:56:47;;;;;;;4.82;0.20;;;12.50;99.90;;;;;;5014348;28;20049;-70
2023/10/08 01:59:15;;;;;;;4.15;0.30;;;12.60;99.90;;;;;;5014307;28;20413;-71
2023/10/08 02:01:42;;;;;;;4.45;0.40;;;12.60;99.90;;;;;;5007898;28;20061;-70
2023/10/08 02:04:09;;;;;;;5.35;0.70;;;12.10;99.90;;;;;;5014261;28;20493;-71
2023/10/08 02:06:35;;;;;;;6.72;0.40;;;12.20;99.90;;;;;;5014550;28;20065;-70
2023/10/08 02:09:08;;;;;;;2.97;0.30;;;12.50;99.90;;;;;;5014390;28;20053;-70
2023/10/08 02:11:50;;;;;;;5.35;0.50;;;12.50;99.90;;;;;;5014682;28;20045;-72
2023/10/08 02:14:16;;;;;;;4.47;0.43;;;12.50;99.90;;;;;;4991995;28;20054;-71
2023/10/08 02:16:43;;;;;;;6.05;0.30;;;12.40;99.90;;;;;;5013675;28;20049;-70
2023/10/08 02:19:12;;;;;;;5.75;0.68;;;12.40;99.90;;;;;;4998050;28;20403;-71
2023/10/08 02:21:42;;;;;;;4.93;0.63;;;;;;;;;;5014668;28;20203;-70
2023/10/08 02:24:09;;;;;;;4.47;0.60;;;12.40;99.90;;;;;;5014282;28;20053;-71
2023/10/08 02:26:35;;;;;;;3.53;0.40;;;12.40;99.90;;;;;;5014134;28;20053;-71
2023/10/08 02:29:01;;;;;;;4.28;0.30;;;12.30;99.90;;;;;;4994292;28;20046;-71
2023/10/08 02:31:27;;;;;;;4.28;0.38;;;12.40;99.90;;;;;;5011289;28;20099;-71
2023/10/08 02:33:54;;;;;;;5.50;0.38;;;12.30;99.90;;;;;;5013575;28;20046;-72
2023/10/08 02:36:20;;;;;;;2.38;1.08;;;12.30;99.90;;;;;;5014043;28;20061;-72
2023/10/08 02:38:45;;;;;;;4.15;0.40;;;12.30;99.90;;;;;;4997222;28;20508;-71
2023/10/08 02:41:16;;;;;;;8.07;0.63;;;12.30;99.90;;;;;;4997509;28;20057;-72
2023/10/08 02:43:44;;;;;;;6.30;0.40;;;12.30;99.90;;;;;;4995822;28;20522;-72
2023/10/08 02:46:14;;;;;;;5.32;0.55;;;12.30;99.90;;;;;;5014080;28;20326;-71
2023/10/08 02:48:41;;;;;;;4.30;0.40;;;12.30;99.90;;;;;;5014935;28;20087;-71
2023/10/08 02:51:14;;;;;;;3.35;0.40;;;12.30;99.90;;;;;;5014234;28;20071;-72
2023/10/08 02:53:42;;;;;;;4.30;0.40;;;12.30;99.90;;;;;;5013744;28;20144;-72
2023/10/08 02:56:12;;;;;;;4.15;0.38;;;14.30;99.90;;;;;;4997015;28;20123;-70
2023/10/08 02:58:39;;;;;;;5.53;0.77;;;12.00;99.90;;;;;;5013907;28;20083;-71
2023/10/08 03:01:05;;;;;;;10.10;0.57;;;12.30;99.90;;;;;;5013683;28;20059;-72
2023/10/08 03:03:32;;;;;;;5.60;0.52;;;12.20;99.90;;;;;;5007387;28;20045;-72
2023/10/08 03:05:58;;;;;;;5.88;0.68;;;12.80;99.90;;;;;;5012664;28;20782;-71
2023/10/08 03:08:24;;;;;;;5.20;0.40;;;12.10;99.90;;;;;;4996611;28;20053;-72
2023/10/08 03:11:02;;;;;;;4.60;0.50;;;12.50;99.90;;;;;;5013061;28;20108;-72
2023/10/08 03:13:28;;;;;;;4.30;0.73;;;12.30;99.90;;;;;;5013139;28;20071;-72
2023/10/08 03:18:35;;;;;;;1.80;0.30;;;12.10;99.90;;;;;;5012815;28;20061;-72
2023/10/08 03:21:06;;;;;;;2.72;0.60;;;12.40;99.90;;;;;;5012535;28;20576;-71
2023/10/08 03:23:35;;;;;;;6.82;0.50;;;12.30;99.90;;;;;;4995192;28;20057;-72
2023/10/08 03:26:17;;;;;;;1.80;0.40;;;12.40;99.90;;;;;;5011171;28;20053;-71
2023/10/08 03:28:43;;;;;;;5.15;0.60;;;12.30;99.90;;;;;;5011701;28;20130;-72
2023/10/08 03:31:17;;;;;;;7.38;0.80;;;12.40;99.90;;;;;;5011347;28;20133;-71
2023/10/08 03:33:48;;;;;;;3.97;0.50;;;12.40;99.90;;;;;;5001162;28;20061;-72
2023/10/08 03:36:21;;;;;;;6.35;0.93;;;12.30;99.90;;;;;;4994884;28;20057;-72
2023/10/08 03:38:50;;;;;;;4.43;0.70;;;12.40;99.90;;;;;;5012901;28;20084;-72
2023/10/08 03:41:27;;;;;;;7.35;0.70;;;12.40;99.90;;;;;;5013041;28;20140;-72
2023/10/08 03:43:55;;;;;;;3.00;0.68;;;12.40;99.90;;;;;;5013322;28;20134;-72
2023/10/08 03:46:23;;;;;;;5.65;0.50;;;12.70;99.90;;;;;;5012852;28;20053;-72
2023/10/08 03:48:51;;;;;;;4.43;0.57;;;12.30;99.90;;;;;;5013160;28;20789;-72
2023/10/08 03:51:20;;;;;;;6.00;0.90;;;12.30;99.90;;;;;;5012821;28;20130;-73
2023/10/08 03:54:06;;;;;;;1.65;0.50;;;12.20;99.90;;;;;;4996495;28;20045;-73
2023/10/08 03:56:36;;;;;;;5.22;1.00;;;12.30;99.90;;;;;;5009654;28;20404;-73
2023/10/08 03:59:27;;;;;;;4.70;0.60;;;12.30;99.90;;;;;;5013041;28;20112;-72
2023/10/08 04:01:54;;;;;;;3.42;0.68;;;12.30;99.90;;;;;;5012841;28;20053;-72
2023/10/08 04:04:43;;;;;;;2.15;0.95;;;12.30;99.90;;;;;;5012680;28;20601;-71
2023/10/08 04:10:05;;;;;;;6.35;0.70;;;12.30;99.90;;;;;;5012160;28;20737;-72
2023/10/08 04:12:34;;;;;;;2.90;0.50;;;12.40;99.90;;;;;;5012581;28;20840;-74
2023/10/08 04:15:01;;;;;;;6.57;0.60;;;12.30;99.90;;;;;;5012283;28;20042;-73
2023/10/08 04:17:43;;;;;;;4.97;0.63;;;12.30;99.90;;;;;;5027799;28;20095;-73
2023/10/08 04:20:33;;;;;;;4.25;0.65;;;12.30;99.90;;;;;;5011166;28;20085;-72
2023/10/08 04:23:01;;;;;;;3.47;0.68;;;12.30;99.90;;;;;;5011177;28;20061;-74
2023/10/08 04:25:28;;;;;;;5.80;0.60;;;12.30;99.90;;;;;;5011506;28;20064;-73
2023/10/08 04:27:58;;;;;;;4.80;0.70;;;9.50;99.90;;;;;;4995191;28;20440;-75
2023/10/08 04:30:33;;;;;;;3.53;0.80;;;12.90;99.90;;;;;;5011514;28;20057;-73
2023/10/08 04:33:07;;;;;;;2.10;0.50;;;12.30;99.90;;;;;;5012650;28;20065;-73
2023/10/08 04:35:36;;;;;;;4.60;0.77;;;12.20;99.90;;;;;;5012131;28;20057;-73
2023/10/08 04:38:11;;;;;;;4.32;0.80;;;12.40;99.90;;;;;;5012699;28;20578;-72
2023/10/08 04:40:47;;;;;;;6.13;0.90;;;12.30;99.90;;;;;;5006947;28;20050;-72
2023/10/08 04:43:15;;;;;;;4.18;0.70;;;12.10;99.90;;;;;;5012948;28;20041;-73
2023/10/08 04:45:41;;;;;;;4.57;0.80;;;12.30;99.90;;;;;;5012480;28;20057;-72
2023/10/08 04:48:19;;;;;;;3.95;0.70;;;12.20;99.90;;;;;;4995421;28;20057;-73
2023/10/08 04:50:44;;;;;;;3.65;0.93;;;12.30;99.90;;;;;;4995740;28;20057;-74
2023/10/08 04:53:10;;;;;;;4.13;1.30;;;12.30;99.90;;;;;;5006948;28;20053;-73
2023/10/08 04:55:41;;;;;;;3.33;1.55;;;12.40;99.90;;;;;;4996119;28;20123;-73
2023/10/08 04:58:19;;;;;;;5.00;1.45;;;;;;;;;;5009329;28;20045;-73
2023/10/08 05:00:53;;;;;;;6.03;1.55;;;12.40;99.90;;;;;;5015481;28;20524;-74
2023/10/08 05:03:22;;;;;;;4.68;1.73;;;12.40;99.90;;;;;;5015618;28;20182;-74
2023/10/08 05:06:06;;;;;;;11.52;3.15;;;12.40;99.90;;;;;;5015989;28;20061;-73
2023/10/08 05:08:44;;;;;;;5.65;2.58;;;12.30;99.90;;;;;;5015419;28;20056;-73
2023/10/08 05:11:24;;;;;;;6.30;2.92;;;11.60;99.90;;;;;;5014430;28;20068;-74
2023/10/08 05:14:02;;;;;;;6.28;3.03;;;12.30;99.90;;;;;;5015527;28;20587;-73
2023/10/08 05:16:44;;;;;;;7.97;2.75;;;12.30;99.90;;;;;;5015493;28;20053;-72
2023/10/08 05:25:07;;;;;;;7.32;3.00;;;12.40;99.90;;;;;;4939214;28;20094;-72
2023/10/08 05:27:38;;;;;;;6.78;3.00;;;12.30;99.90;;;;;;4938993;28;20066;-73
2023/10/08 05:30:17;;;;;;;6.80;3.47;;;9.80;99.90;;;;;;4987427;28;20064;-73
2023/10/08 05:49:02;;;;;;;6.95;3.03;;;12.30;99.90;;;;;;4976475;28;20501;-74
2023/10/08 05:51:46;;;;;;;5.55;2.90;;;12.30;99.90;;;;;;4976726;28;20500;-73
2023/10/08 06:03:09;;;;;;;6.35;3.45;;;12.20;99.90;;;;;;4977505;28;20496;-74
2023/10/08 06:05:27;;;;;;;6.35;3.33;;;12.30;99.90;;;;;;5010549;28;20053;-73
2023/10/08 06:13:10;;;;;;;7.45;2.92;;;12.30;99.90;;;;;;5015426;28;20104;-73
2023/10/08 06:16:04;;;;;;;7.55;3.05;;;12.30;99.90;;;;;;5014972;28;20061;-73
2023/10/08 06:18:33;;;;;;;5.63;2.53;;;12.30;99.90;;;;;;5014768;28;20754;-73
2023/10/08 06:21:11;;;;;;;9.02;3.05;;;12.30;99.90;;;;;;5014690;28;20080;-73
2023/10/08 06:23:41;;;;;;;8.45;3.08;;;12.30;99.90;;;;;;5030143;28;20050;-73
2023/10/08 06:28:38;;;;;;;6.63;3.13;;;12.30;99.90;;;;;;5014411;28;20775;-73
2023/10/08 06:31:11;;;;;;;8.50;3.22;;;12.40;99.90;;;;;;5013969;28;20448;-74
2023/10/08 06:33:38;;;;;;;6.72;3.17;;;12.40;99.90;;;;;;5013011;28;20057;-73
2023/10/08 06:38:38;;;;;;;8.70;2.90;;;;;;;;;;5013846;28;20049;-72
2023/10/08 06:44:02;;;;;;;4.80;3.20;;;12.60;99.90;;;;;;5013630;28;20533;-73
2023/10/08 06:46:32;;;;;;;4.43;2.92;;;12.70;99.90;;;;;;5013645;28;20562;-72
2023/10/08 06:49:11;;;;;;;6.47;2.47;;;12.70;99.90;;;;;;5013853;28;20057;-75
2023/10/08 06:51:38;;;;;;;7.60;2.70;;;12.90;99.90;;;;;;4999260;28;20152;-73
2023/10/08 06:54:04;;;;;;;7.97;2.08;;;12.90;99.90;;;;;;5010295;28;20540;-73
2023/10/08 06:56:32;;;;;;;5.07;1.75;;;13.00;99.90;;;;;;5011903;28;20053;-73
2023/10/08 06:58:59;;;;;;;9.70;2.15;;;13.20;99.90;;;;;;5011325;28;20128;-72
2023/10/08 07:01:25;;;;;;;7.80;1.85;;;13.20;99.90;;;;;;5011333;28;20049;-73
2023/10/08 07:03:52;;;;;;;5.57;1.50;;;10.50;99.90;;;;;;5011037;28;20515;-73
2023/10/08 07:06:31;;;;;;;3.60;1.33;;;13.40;99.90;;;;;;4995946;28;20041;-73
2023/10/08 07:08:59;;;;;;;4.13;1.25;;;13.50;99.90;;;;;;5025822;28;20053;-73
2023/10/08 07:11:26;;;;;;;3.33;1.45;;;13.70;99.90;;;;;;5013867;28;20084;-74
2023/10/08 07:13:52;;;;;;;5.47;1.10;;;13.80;99.90;;;;;;5029398;28;20487;-73
2023/10/08 07:16:18;;;;;;;5.45;1.35;;;13.70;99.90;;;;;;5015175;28;20148;-74
2023/10/08 07:18:55;;;;;;;6.05;1.15;;;13.70;99.90;;;;;;5013312;28;20488;-73
2023/10/08 07:21:28;;;;;;;4.43;1.13;;;13.70;99.90;;;;;;5012186;28;20061;-74
2023/10/08 07:23:59;;;;;;;4.90;1.48;;;13.90;99.90;;;;;;5012656;28;20476;-74
2023/10/08 07:26:26;;;;;;;7.45;1.60;;;13.80;99.90;;;;;;5012867;28;20583;-73
2023/10/08 07:28:53;;;;;;;4.57;1.17;;;14.00;99.90;;;;;;4996155;28;20057;-75
2023/10/08 07:31:23;;;;;;;7.20;1.13;;;14.20;99.90;;;;;;5012498;28;20057;-75
2023/10/08 07:34:15;;;;;;;4.70;0.68;;;14.40;99.90;;;;;;4994550;28;20053;-75
2023/10/08 07:36:41;;;;;;;4.32;0.70;;;14.60;99.90;;;;;;5012277;28;20053;-79
2023/10/08 07:39:15;;;;;;;4.43;0.80;;;14.80;99.90;;;;;;4995978;28;20049;-75
2023/10/08 07:41:40;;;;;;;5.50;0.70;;;14.70;99.90;;;;;;4989318;28;20049;-76
2023/10/08 07:44:07;;;;;;;6.30;0.80;;;14.70;99.90;;;;;;5011040;28;20090;-76
2023/10/08 07:46:33;;;;;;;4.90;0.70;;;14.60;99.90;;;;;;5011302;28;20155;-76
2023/10/08 07:48:58;;;;;;;6.63;0.60;;;14.60;99.90;;;;;;5011224;28;20051;-76
2023/10/08 07:51:24;;;;;;;6.43;0.60;;;14.60;99.90;;;;;;4993118;28;20037;-75
2023/10/08 07:53:55;;;;;;;6.97;1.10;;;14.50;99.90;;;;;;4993719;28;20049;-76
2023/10/08 07:56:25;;;;;;;7.20;0.75;;;14.60;99.90;;;;;;5012198;28;20927;-76
2023/10/08 07:58:57;;;;;;;7.32;0.50;;;14.60;99.90;;;;;;5007973;28;20098;-76
2023/10/08 08:01:25;;;;;;;6.13;1.00;;;14.60;99.90;;;;;;4991830;28;20045;-76
2023/10/08 08:03:51;;;;;;;6.40;0.60;;;14.70;99.90;;;;;;5007763;28;20045;-76
2023/10/08 08:06:17;;;;;;;5.53;1.00;;;14.70;99.90;;;;;;5010077;28;20055;-75
2023/10/08 08:08:44;;;;;;;5.95;0.55;;;14.80;99.90;;;;;;5010233;28;20148;-75
2023/10/08 08:11:13;;;;;;;7.43;0.45;;;14.80;99.90;;;;;;4995636;28;20064;-74
2023/10/08 08:13:43;;;;;;;5.82;0.98;;;14.80;99.90;;;;;;5008492;28;20573;-76
2023/10/08 08:16:20;;;;;;;7.28;1.63;;;14.70;99.90;;;;;;5007061;28;20045;-74
2023/10/08 08:18:46;;;;;;;8.52;0.98;;;14.60;99.90;;;;;;5012749;28;20042;-74
2023/10/08 08:21:16;;;;;;;4.50;0.50;;;14.50;99.90;;;;;;4992420;28;20332;-74
2023/10/08 08:23:50;;;;;;;5.80;0.70;;;14.60;99.90;;;;;;4993724;28;20662;-75
2023/10/08 08:26:29;;;;;;;5.32;0.90;;;14.60;99.90;;;;;;4996294;28;20054;-75
2023/10/08 08:28:56;;;;;;;6.82;0.63;;;14.80;99.90;;;;;;5011837;28;20049;-75
2023/10/08 08:31:26;;;;;;;10.23;0.82;;;14.80;99.90;;;;;;4647612;28;10000500;-76
2023/10/08 08:33:53;;;;;;;8.82;1.00;;;15.20;99.90;;;;;;5014968;28;20053;-75
2023/10/08 08:36:24;;;;;;;8.55;0.60;;;15.20;99.90;;;;;;5011955;28;20816;-77
2023/10/08 08:38:51;;;;;;;7.78;0.60;;;15.40;99.90;;;;;;4997808;28;20041;-76
2023/10/08 08:41:20;;;;;;;8.65;0.90;;;15.60;99.90;;;;;;5011226;28;20045;-78
2023/10/08 08:47:10;;;;;;;5.35;0.73;;;15.90;99.90;;;;;;5017563;28;20054;-77
2023/10/08 08:49:37;;;;;;;7.88;1.00;;;16.00;99.90;;;;;;5013995;28;20129;-77
2023/10/08 08:52:04;;;;;;;5.93;0.85;;;16.10;99.90;;;;;;5014465;28;20049;-78
2023/10/08 08:54:30;;;;;;;8.40;0.40;;;16.20;99.90;;;;;;5013753;28;20054;-77
2023/10/08 08:57:02;;;;;;;5.50;0.80;;;16.10;99.90;;;;;;5012968;28;20520;-78
2023/10/08 08:59:30;;;;;;;6.45;0.50;;;16.20;99.90;;;;;;5013164;28;20045;-78
2023/10/08 09:01:59;;;;;;;7.65;0.60;;;14.60;99.90;;;;;;5013193;28;20049;-79
2023/10/08 09:04:32;;;;;;;5.20;0.50;;;16.30;99.90;;;;;;4996489;28;20667;-78
2023/10/08 09:07:04;;;;;;;5.40;0.50;;;16.50;99.90;;;;;;4996758;28;20267;-78
2023/10/08 09:09:37;;;;;;;4.55;0.45;;;16.40;99.90;;;;;;5024023;28;20060;-79
2023/10/08 09:12:04;;;;;;;5.30;0.50;;;16.60;99.90;;;;;;5012181;28;20208;-78
2023/10/08 09:14:34;;;;;;;8.50;0.55;;;16.50;99.90;;;;;;5013213;28;20548;-79
2023/10/08 09:17:00;;;;;;;7.22;0.50;;;16.50;99.90;;;;;;5013384;28;20064;-79
2023/10/08 09:19:27;;;;;;;6.15;0.93;;;16.60;99.90;;;;;;4997666;28;20493;-79
2023/10/08 09:22:15;;;;;;;11.50;0.85;;;16.70;99.90;;;;;;4998163;28;20060;-79
2023/10/08 09:24:42;;;;;;;11.27;0.57;;;16.70;99.90;;;;;;5012316;28;20128;-78
2023/10/08 09:27:15;;;;;;;6.95;0.82;;;17.00;99.90;;;;;;5028996;28;20119;-77
2023/10/08 09:29:42;;;;;;;7.90;0.80;;;16.80;99.90;;;;;;5012719;28;20122;-78
2023/10/08 09:32:14;;;;;;;7.82;1.50;;;16.80;99.90;;;;;;5013441;28;20214;-77
2023/10/08 09:34:40;;;;;;;;;;;16.90;99.90;;;;;;5013156;28;20064;-79
2023/10/08 09:37:07;;;;;;;8.23;1.65;;;16.90;99.90;;;;;;4997380;28;20707;-80
2023/10/08 09:39:33;;;;;;;5.38;1.02;;;16.90;99.90;;;;;;5007544;28;20049;-79
2023/10/08 09:42:03;;;;;;;5.65;1.05;;;17.10;99.90;;;;;;4995973;28;20049;-78
2023/10/08 09:44:30;;;;;;;8.70;0.80;;;17.10;99.90;;;;;;5010513;28;20049;-77
2023/10/08 09:47:06;;;;;;;8.20;0.63;;;17.20;99.90;;;;;;5011822;28;20053;-77
2023/10/08 09:49:43;;;;;;;6.00;0.60;;;17.10;99.90;;;;;;5012372;28;20052;-78
2023/10/08 09:52:10;;;;;;;5.72;0.70;;;17.20;99.90;;;;;;5012491;28;20160;-78
2023/10/08 09:55:03;;;;;;;6.85;0.43;;;17.20;99.90;;;;;;5012305;28;20123;-78
2023/10/08 09:57:29;;;;;;;5.63;0.50;;;17.20;99.90;;;;;;5013436;28;20045;-80
2023/10/08 09:59:57;;;;;;;8.35;1.85;;;17.20;99.90;;;;;;4995712;28;20130;-79
2023/10/08 10:02:27;;;;;;;7.70;1.20;;;17.20;99.90;;;;;;4989745;28;20061;-79
2023/10/08 10:04:54;;;;;;;3.33;0.50;;;17.30;99.90;;;;;;5012617;28;20131;-78
2023/10/08 10:07:21;;;;;;;9.15;0.50;;;17.30;99.90;;;;;;5012307;28;20053;-78
2023/10/08 10:09:53;;;;;;;10.57;0.80;;;17.40;99.90;;;;;;5012744;28;20049;-79
2023/10/08 10:12:30;;;;;;;7.15;0.45;;;17.30;99.90;;;;;;5024956;28;20057;-79
2023/10/08 10:14:57;;;;;;;7.70;0.80;;;17.50;99.90;;;;;;5011727;28;20060;-79
2023/10/08 10:17:28;;;;;;;8.50;0.77;;;17.50;99.90;;;;;;5013572;28;20057;-78
2023/10/08 10:19:59;;;;;;;6.47;0.65;;;17.60;99.90;;;;;;5012008;28;20202;-79
2023/10/08 10:22:30;;;;;;;8.50;0.88;;;17.80;99.90;;;;;;5005174;28;20140;-79
2023/10/08 10:25:14;;;;;;;10.57;0.98;;;17.90;99.90;;;;;;4993456;28;20091;-77
2023/10/08 10:27:42;;;;;;;8.43;1.50;;;18.00;99.90;;;;;;5013011;28;20156;-75
2023/10/08 10:30:08;;;;;;;9.18;0.73;;;18.00;99.90;;;;;;5013721;28;20064;-79
2023/10/08 10:32:35;;;;;;;5.60;0.63;;;18.00;99.90;;;;;;5014308;28;20049;-77
2023/10/08 10:35:05;;;;;;;7.05;1.20;;;18.10;99.90;;;;;;5014570;28;20049;-74
2023/10/08 10:37:41;;;;;;;8.80;1.17;;;18.20;99.90;;;;;;5013351;28;20050;-76
2023/10/08 10:40:14;;;;;;;10.52;0.95;;;17.90;99.90;;;;;;5012786;28;20882;-77
2023/10/08 10:42:42;;;;;;;4.43;1.02;;;17.80;99.90;;;;;;5012997;28;20053;-78
2023/10/08 10:48:11;;;;;;;8.32;0.80;;;17.70;99.90;;;;;;5013333;28;20053;-75
2023/10/08 10:50:48;;;;;;;10.40;0.88;;;17.60;99.90;;;;;;5013551;28;20475;-74
2023/10/08 10:53:18;;;;;;;7.13;1.42;;;17.50;99.90;;;;;;5013153;28;20053;-74
2023/10/08 10:55:58;;;;;;;9.48;0.75;;;17.40;99.90;;;;;;5007015;28;20950;-75
2023/10/08 10:58:26;;;;;;;9.23;0.82;;;17.30;99.90;;;;;;5013124;28;20162;-72
2023/10/08 11:00:59;;;;;;;6.07;0.70;;;17.20;99.90;;;;;;4996835;28;20049;-72
2023/10/08 11:03:25;;;;;;;8.63;0.40;;;17.20;99.90;;;;;;5013811;28;20334;-76
2023/10/08 11:05:59;;;;;;;9.40;1.75;;;17.10;99.90;;;;;;5013634;28;20602;-75
2023/10/08 11:08:26;;;;;;;10.40;0.77;;;;;;;;;;5013887;28;20168;-75
2023/10/08 11:10:57;;;;;;;5.97;0.60;;;17.30;99.90;;;;;;5012415;28;20075;-75
2023/10/08 11:13:28;;;;;;;11.73;0.80;;;17.30;99.90;;;;;;4997028;28;20056;-75
2023/10/08 11:15:57;;;;;;;9.13;0.60;;;17.20;99.90;;;;;;5013124;28;20049;-75
2023/10/08 11:18:27;;;;;;;9.02;1.00;;;17.30;99.90;;;;;;5013008;28;20049;-75
2023/10/08 11:21:13;;;;;;;9.70;0.85;;;17.30;99.90;;;;;;5014490;28;20065;-76
2023/10/08 11:23:52;;;;;;;9.07;1.33;;;17.40;99.90;;;;;;4997153;28;20041;-75
2023/10/08 11:26:19;;;;;;;9.88;1.10;;;17.40;99.90;;;;;;4996903;28;20164;-74
2023/10/08 11:28:47;;;;;;;7.00;1.00;;;17.40;99.90;;;;;;5013360;28;20052;-76
2023/10/08 11:31:20;;;;;;;9.75;1.00;;;17.60;99.90;;;;;;5013256;28;20053;-75
2023/10/08 11:33:55;;;;;;;7.43;0.60;;;17.50;99.90;;;;;;5027031;28;20053;-75
2023/10/08 11:36:28;;;;;;;7.70;0.77;;;17.60;99.90;;;;;;5012583;28;20473;-74
2023/10/08 11:39:09;;;;;;;5.90;0.55;;;17.70;99.90;;;;;;5012860;28;20084;-76
2023/10/08 11:41:49;;;;;;;6.35;0.98;;;17.60;99.90;;;;;;5012786;28;20592;-75
2023/10/08 11:44:19;;;;;;;6.38;0.60;;;17.70;99.90;;;;;;5012959;28;20057;-75
2023/10/08 11:46:45;;;;;;;10.65;1.25;;;18.00;99.90;;;;;;5006521;28;20076;-77
2023/10/08 11:49:17;;;;;;;8.65;0.82;;;17.90;99.90;;;;;;5004346;28;20506;-76
2023/10/08 11:51:44;;;;;;;6.05;1.02;;;17.90;99.90;;;;;;5008092;28;20100;-76
2023/10/08 11:54:11;;;;;;;7.40;0.57;;;18.00;99.90;;;;;;5004119;28;20405;-76
2023/10/08 11:56:38;;;;;;;8.52;1.17;;;18.00;99.90;;;;;;5012223;28;20117;-76
2023/10/08 11:59:08;;;;;;;4.13;0.75;;;18.10;99.90;;;;;;5009429;28;20535;-75
2023/10/08 12:01:43;;;;;;;9.68;0.80;;;18.10;99.90;;;;;;5011291;28;20057;-75
2023/10/08 12:04:15;;;;;;;10.40;1.35;;;18.10;99.90;;;;;;5009818;28;20622;-76
2023/10/08 12:06:46;;;;;;;;;;;18.10;99.90;;;;;;5012463;28;20037;-76
2023/10/08 12:09:14;;;;;;;9.67;1.70;;;18.10;99.90;;;;;;5014215;28;19936;-76
2023/10/08 12:11:40;;;;;;;7.45;1.13;;;18.00;99.90;;;;;;5015045;28;20342;-77
2023/10/08 12:14:06;;;;;;;6.80;1.05;;;15.50;99.90;;;;;;5015032;28;20262;-77
2023/10/08 12:16:35;;;;;;;9.98;0.60;;;18.10;99.90;;;;;;5016322;28;20049;-75
2023/10/08 12:19:06;;;;;;;11.93;0.90;;;21.10;99.90;;;;;;5015507;28;20049;-76
2023/10/08 12:21:32;;;;;;;9.98;0.93;;;18.10;99.90;;;;;;5000037;28;20134;-76
2023/10/08 12:23:58;;;;;;;15.48;1.55;;;18.00;99.90;;;;;;5012690;28;20045;-76
2023/10/08 12:26:25;;;;;;;11.57;1.25;;;;;;;;;;5015201;28;20062;-76
2023/10/08 12:28:53;;;;;;;7.15;0.82;;;18.00;99.90;;;;;;5016035;28;20049;-74
2023/10/08 12:31:23;;;;;;;8.45;1.00;;;18.00;99.90;;;;;;4998995;28;20049;-74
2023/10/08 12:33:53;;;;;;;9.52;0.95;;;17.90;99.90;;;;;;4995651;28;20579;-77
2023/10/08 12:36:22;;;;;;;8.68;0.82;;;17.90;99.90;;;;;;5012263;28;20053;-77
2023/10/08 12:38:49;;;;;;;7.38;0.63;;;18.00;99.90;;;;;;5015517;28;20041;-76
2023/10/08 12:41:18;;;;;;;6.60;1.33;;;18.10;99.90;;;;;;4999337;28;20564;-75
2023/10/08 12:43:45;;;;;;;6.25;0.73;;;18.20;99.90;;;;;;5015874;28;20088;-76
2023/10/08 12:46:48;;;;;;;5.03;0.70;;;18.20;99.90;;;;;;5016166;28;20489;-76
2023/10/08 12:49:07;;;;;;;7.22;1.27;;;18.20;99.90;;;;;;5011371;28;20057;-75
2023/10/08 12:51:33;;;;;;;8.52;1.00;;;18.20;99.90;;;;;;4998966;28;20049;-75
2023/10/08 12:54:21;;;;;;;8.13;0.77;;;18.10;99.90;;;;;;4999418;28;20787;-77
2023/10/08 12:56:54;;;;;;;10.40;2.20;;;18.10;99.90;;;;;;5015733;28;20113;-75
2023/10/08 12:59:20;;;;;;;7.15;0.70;;;18.00;99.90;;;;;;5013938;28;20049;-76
2023/10/08 13:01:55;;;;;;;4.93;0.75;;;17.90;99.90;;;;;;4996187;28;20495;-76
2023/10/08 13:04:34;;;;;;;9.73;1.50;;;17.80;99.90;;;;;;5014919;28;20065;-77
2023/10/08 13:07:02;;;;;;;12.45;1.65;;;17.70;99.90;;;;;;5014609;28;20071;-74
2023/10/08 13:09:32;;;;;;;7.90;0.80;;;17.60;99.90;;;;;;5030810;28;20061;-77
2023/10/08 13:12:02;;;;;;;9.90;1.40;;;17.40;99.90;;;;;;5014902;28;20140;-75
2023/10/08 13:14:28;;;;;;;6.63;1.30;;;17.40;99.90;;;;;;5024690;28;20041;-74
2023/10/08 13:16:54;;;;;;;6.47;0.50;;;17.40;99.90;;;;;;4998334;28;20046;-76
2023/10/08 13:19:20;;;;;;;9.07;0.40;;;17.40;99.90;;;;;;5014380;28;20779;-75
2023/10/08 13:21:47;;;;;;;4.75;0.60;;;17.40;99.90;;;;;;5015842;28;20057;-74
2023/10/08 13:24:13;;;;;;;5.47;0.68;;;17.40;99.90;;;;;;5015587;28;20052;-74
2023/10/08 13:26:39;;;;;;;9.35;1.02;;;17.40;99.90;;;;;;5015320;28;20049;-75
2023/10/08 13:29:06;;;;;;;5.82;1.67;;;17.50;99.90;;;;;;4998970;28;20048;-74
2023/10/08 13:31:36;;;;;;;7.40;0.95;;;17.50;99.90;;;;;;5015723;28;20054;-73
2023/10/08 13:34:03;;;;;;;7.25;0.63;;;17.60;99.90;;;;;;5005383;28;20071;-71
2023/10/08 13:36:30;;;;;;;7.30;1.05;;;17.50;99.90;;;;;;5014713;28;20085;-72
2023/10/08 13:38:56;;;;;;;6.60;0.82;;;17.40;99.90;;;;;;5014973;28;20053;-74
2023/10/08 13:41:22;;;;;;;9.43;0.85;;;17.30;99.90;;;;;;5014016;28;20551;-72
2023/10/08 13:43:51;;;;;;;7.70;0.73;;;17.20;99.90;;;;;;5013896;28;20049;-72
2023/10/08 13:46:19;;;;;;;6.25;0.65;;;17.10;99.90;;;;;;4995903;28;20064;-75
2023/10/08 13:48:47;;;;;;;9.48;1.25;;;17.00;99.90;;;;;;4993047;28;20574;-75
2023/10/08 13:51:20;;;;;;;11.85;0.95;;;16.80;99.90;;;;;;5030067;28;20050;-73
2023/10/08 13:53:59;;;;;;;6.43;0.57;;;17.20;99.90;;;;;;5014504;28;20053;-74
2023/10/08 13:56:27;;;;;;;7.35;0.60;;;16.70;99.90;;;;;;5012706;28;20049;-74
2023/10/08 13:59:11;;;;;;;6.72;0.55;;;16.50;99.90;;;;;;4995524;28;20044;-75
2023/10/08 14:01:42;;;;;;;10.90;0.80;;;16.50;99.90;;;;;;5010115;28;20056;-73
2023/10/08 14:04:09;;;;;;;4.18;0.35;;;16.50;99.90;;;;;;5014716;28;20573;-73
2023/10/08 14:06:41;;;;;;;9.95;1.08;;;16.60;99.90;;;;;;5014070;28;20743;-72